createdAt,value
2023-03-06T00:01:33.374Z,84.58
2023-03-06T00:03:35.518Z,84.85
2023-03-06T00:05:37.470Z,84.54
2023-03-06T00:07:39.178Z,84.42
2023-03-06T00:09:40.693Z,85.37
2023-03-06T00:11:42.607Z,84.65
2023-03-06T00:13:44.979Z,84.29
2023-03-06T00:15:47.190Z,83.90
2023-03-06T00:17:49.018Z,83.56
2023-03-06T00:19:50.661Z,83.67
2023-03-06T00:21:52.253Z,83.07
2023-03-06T00:23:53.863Z,84.12
2023-03-06T00:25:55.457Z,83.86
2023-03-06T00:27:56.976Z,83.85
2023-03-06T00:30:00.756Z,82.17
2023-03-06T00:32:02.451Z,82.20
2023-03-06T00:34:04.585Z,83.29
2023-03-06T00:36:06.628Z,81.81
2023-03-06T00:38:11.631Z,82.38
2023-03-06T00:40:15.861Z,82.42
2023-03-06T00:42:18.422Z,82.52
2023-03-06T00:44:20.014Z,82.19
2023-03-06T00:46:21.695Z,81.70
2023-03-06T00:48:23.320Z,82.43
2023-03-06T00:50:27.521Z,81.68
2023-03-06T00:52:29.173Z,80.65
2023-03-06T00:54:30.684Z,79.92
2023-03-06T00:56:32.246Z,80.74
2023-03-06T00:58:33.818Z,79.78
2023-03-06T01:00:35.639Z,78.99
2023-03-06T01:02:37.440Z,78.38
2023-03-06T01:04:39.601Z,78.99
2023-03-06T01:06:41.246Z,78.94
2023-03-06T01:08:43.051Z,78.81
2023-03-06T01:10:45.074Z,76.73
2023-03-06T01:12:46.921Z,78.23
2023-03-06T01:14:48.504Z,78.43
2023-03-06T01:16:50.527Z,78.72
2023-03-06T01:18:52.305Z,79.56
2023-03-06T01:20:54.018Z,77.57
2023-03-06T01:22:56.500Z,76.49
2023-03-06T01:24:58.053Z,76.48
2023-03-06T01:26:59.621Z,75.89
2023-03-06T01:29:01.780Z,76.73
2023-03-06T01:31:04.104Z,78.02
2023-03-06T01:33:05.754Z,78.38
2023-03-06T01:35:07.578Z,77.89
2023-03-06T01:37:09.122Z,78.22
2023-03-06T01:39:10.729Z,77.96
2023-03-06T01:41:15.637Z,75.17
2023-03-06T01:43:31.520Z,76.23
2023-03-06T01:45:33.332Z,74.88
2023-03-06T01:47:35.308Z,76.26
2023-03-06T01:49:40.139Z,76.67
2023-03-06T01:51:53.446Z,75.16
2023-03-06T01:53:56.337Z,77.00
2023-03-06T01:55:58.242Z,75.54
2023-03-06T01:58:07.186Z,77.29
2023-03-06T02:00:09.875Z,77.25
2023-03-06T02:02:18.056Z,76.04
2023-03-06T02:04:20.446Z,75.23
2023-03-06T02:06:22.256Z,75.44
2023-03-06T02:08:24.475Z,76.24
2023-03-06T02:10:26.043Z,75.88
2023-03-06T02:12:27.967Z,75.45
2023-03-06T02:14:30.059Z,75.97
2023-03-06T02:16:32.891Z,75.80
2023-03-06T02:18:34.888Z,76.93
2023-03-06T02:20:45.272Z,76.27
2023-03-06T02:22:57.005Z,76.24
2023-03-06T02:25:07.741Z,76.20
2023-03-06T02:27:12.321Z,75.28
2023-03-06T02:29:20.196Z,75.74
2023-03-06T02:31:27.448Z,76.36
2023-03-06T02:33:29.875Z,75.93
2023-03-06T02:35:38.584Z,75.54
2023-03-06T02:37:40.253Z,75.46
2023-03-06T02:39:46.760Z,74.73
2023-03-06T02:41:48.685Z,73.35
2023-03-06T02:43:52.601Z,74.41
2023-03-06T02:45:54.197Z,74.58
2023-03-06T02:47:55.801Z,75.04
2023-03-06T02:49:57.400Z,75.53
2023-03-06T02:51:59.094Z,75.21
2023-03-06T02:54:00.728Z,75.31
2023-03-06T02:56:02.452Z,75.24
2023-03-06T02:58:04.688Z,75.53
2023-03-06T03:00:07.206Z,75.62
2023-03-06T03:02:09.514Z,75.94
2023-03-06T03:04:11.233Z,75.60
2023-03-06T03:06:13.880Z,75.21
2023-03-06T03:08:15.917Z,74.41
2023-03-06T03:10:17.827Z,76.14
2023-03-06T03:12:22.241Z,76.87
2023-03-06T03:14:24.599Z,77.06
2023-03-06T03:16:26.444Z,77.61
2023-03-06T03:18:31.954Z,77.47
2023-03-06T03:20:33.774Z,78.42
2023-03-06T03:22:35.597Z,79.53
2023-03-06T03:24:37.149Z,80.35
2023-03-06T03:26:39.246Z,80.38
2023-03-06T03:28:46.482Z,81.00
2023-03-06T03:30:51.522Z,80.52
2023-03-06T03:32:53.319Z,79.64
2023-03-06T03:34:56.066Z,78.85
2023-03-06T03:36:58.882Z,78.65
2023-03-06T03:39:00.567Z,77.38
2023-03-06T03:41:03.045Z,78.50
2023-03-06T03:43:05.083Z,78.64
2023-03-06T03:45:07.934Z,79.72
2023-03-06T03:47:09.666Z,79.06
2023-03-06T03:49:11.576Z,79.74
2023-03-06T03:51:16.491Z,80.47
2023-03-06T03:53:21.933Z,81.75
2023-03-06T03:55:23.593Z,81.31
2023-03-06T03:57:25.497Z,82.37
2023-03-06T03:59:28.656Z,81.37
2023-03-06T04:01:45.818Z,81.62
2023-03-06T04:03:47.819Z,80.95
2023-03-06T04:05:53.836Z,81.12
2023-03-06T04:07:55.335Z,81.24
2023-03-06T04:09:57.119Z,80.99
2023-03-06T04:11:59.193Z,80.63
2023-03-06T04:14:00.987Z,81.14
2023-03-06T04:16:02.920Z,81.72
2023-03-06T04:18:06.579Z,82.44
2023-03-06T04:20:09.817Z,82.69
2023-03-06T04:22:11.594Z,83.01
2023-03-06T04:24:14.926Z,83.56
2023-03-06T04:26:17.563Z,83.98
2023-03-06T04:28:20.138Z,84.65
2023-03-06T04:30:21.985Z,84.79
2023-03-06T04:32:24.300Z,84.25
2023-03-06T04:34:26.569Z,84.09
2023-03-06T04:36:33.344Z,83.34
2023-03-06T04:38:42.021Z,82.57
2023-03-06T04:40:45.145Z,84.18
2023-03-06T04:42:47.829Z,83.84
2023-03-06T04:44:49.371Z,83.58
2023-03-06T04:46:51.058Z,83.45
2023-03-06T04:48:52.645Z,82.85
2023-03-06T04:50:54.234Z,82.61
2023-03-06T04:52:55.801Z,82.15
2023-03-06T04:54:57.740Z,82.20
2023-03-06T04:56:59.373Z,81.74
2023-03-06T04:59:02.554Z,81.72
2023-03-06T05:01:04.735Z,82.04
2023-03-06T05:03:06.307Z,83.49
2023-03-06T05:05:08.866Z,83.87
2023-03-06T05:07:10.802Z,83.97
2023-03-06T05:09:12.358Z,84.07
2023-03-06T05:11:13.857Z,84.34
2023-03-06T05:13:15.454Z,84.20
2023-03-06T05:15:17.380Z,83.86
2023-03-06T05:17:18.901Z,84.17
2023-03-06T05:19:20.746Z,84.12
2023-03-06T05:21:22.769Z,84.11
2023-03-06T05:23:24.349Z,84.47
2023-03-06T05:25:26.253Z,83.75
2023-03-06T05:27:28.515Z,83.10
2023-03-06T05:29:30.198Z,83.35
2023-03-06T05:31:31.806Z,82.82
2023-03-06T05:33:35.161Z,83.39
2023-03-06T05:35:36.760Z,82.97
2023-03-06T05:37:38.236Z,83.06
2023-03-06T05:39:39.923Z,82.96
2023-03-06T05:41:41.525Z,83.08
2023-03-06T05:43:44.251Z,83.03
2023-03-06T05:45:45.847Z,83.00
2023-03-06T05:47:47.426Z,83.49
2023-03-06T05:49:49.031Z,83.55
2023-03-06T05:51:50.606Z,83.65
2023-03-06T05:53:52.315Z,83.48
2023-03-06T05:55:58.861Z,84.68
2023-03-06T05:58:00.410Z,85.09
2023-03-06T06:00:01.998Z,85.48
2023-03-06T06:02:05.412Z,86.24
2023-03-06T06:04:07.209Z,86.03
2023-03-06T06:06:11.003Z,86.16
2023-03-06T06:08:12.518Z,85.59
2023-03-06T06:10:14.273Z,86.60
2023-03-06T06:12:15.901Z,86.97
2023-03-06T06:14:17.612Z,87.07
2023-03-06T06:16:19.414Z,87.30
2023-03-06T06:18:21.349Z,86.98
2023-03-06T06:20:24.152Z,86.91
2023-03-06T06:22:25.857Z,85.86
2023-03-06T06:24:27.446Z,86.86
2023-03-06T06:26:29.022Z,87.27
2023-03-06T06:28:31.154Z,87.20
2023-03-06T06:30:33.442Z,87.96
2023-03-06T06:32:36.394Z,88.31
2023-03-06T06:34:38.043Z,87.72
2023-03-06T06:36:40.344Z,87.91
2023-03-06T06:38:41.900Z,87.76
2023-03-06T06:40:46.968Z,88.08
2023-03-06T06:43:00.158Z,87.78
2023-03-06T06:45:02.316Z,87.72
2023-03-06T06:47:23.471Z,88.07
2023-03-06T06:49:25.898Z,88.00
2023-03-06T06:51:27.430Z,88.24
2023-03-06T06:53:29.037Z,87.99
2023-03-06T06:55:30.650Z,88.35
2023-03-06T06:57:32.299Z,89.63
2023-03-06T06:59:33.908Z,89.90
2023-03-06T07:01:35.629Z,89.94
2023-03-06T07:03:37.799Z,89.61
2023-03-06T07:05:39.608Z,89.46
2023-03-06T07:07:41.462Z,88.70
2023-03-06T07:09:43.749Z,88.35
2023-03-06T07:11:45.353Z,89.01
2023-03-06T07:13:47.517Z,88.46
2023-03-06T07:15:49.115Z,88.83
2023-03-06T07:17:50.727Z,88.62
2023-03-06T07:19:52.341Z,88.52
2023-03-06T07:21:53.997Z,88.48
2023-03-06T07:23:57.353Z,88.38
2023-03-06T07:25:59.250Z,88.81
2023-03-06T07:28:01.056Z,90.67
2023-03-06T07:30:02.811Z,91.19
2023-03-06T07:32:05.078Z,91.31
2023-03-06T07:34:06.734Z,92.27
2023-03-06T07:36:12.724Z,92.66
2023-03-06T07:38:14.599Z,91.73
2023-03-06T07:40:16.505Z,90.85
2023-03-06T07:42:18.045Z,91.69
2023-03-06T07:44:30.282Z,90.50
2023-03-06T07:46:31.991Z,90.56
2023-03-06T07:48:34.512Z,90.00
2023-03-06T07:50:36.240Z,90.36
2023-03-06T07:52:37.845Z,90.63
2023-03-06T07:54:39.474Z,90.65
2023-03-06T07:56:41.163Z,90.18
2023-03-06T07:58:46.193Z,89.89
2023-03-06T08:00:47.977Z,89.72
2023-03-06T08:02:49.544Z,88.81
2023-03-06T08:04:55.275Z,88.78
2023-03-06T08:06:59.401Z,89.26
2023-03-06T08:09:01.036Z,88.77
2023-03-06T08:11:03.569Z,88.16
2023-03-06T08:13:05.151Z,89.14
2023-03-06T08:15:09.315Z,89.09
2023-03-06T08:17:10.841Z,89.51
2023-03-06T08:19:12.446Z,89.50
2023-03-06T08:21:19.750Z,89.30
2023-03-06T08:23:21.304Z,97.32
2023-03-06T08:25:24.558Z,87.82
2023-03-06T08:27:26.181Z,87.71
2023-03-06T08:29:27.718Z,88.13
2023-03-06T08:31:39.665Z,88.04
2023-03-06T08:33:41.270Z,88.17
2023-03-06T08:35:43.157Z,88.04
2023-03-06T08:37:45.146Z,88.09
2023-03-06T08:39:46.809Z,88.89
2023-03-06T08:41:48.328Z,88.67
2023-03-06T08:43:50.356Z,88.29
2023-03-06T08:45:57.175Z,88.62
2023-03-06T08:47:58.960Z,88.39
2023-03-06T08:50:00.953Z,88.39
2023-03-06T08:52:02.582Z,88.41
2023-03-06T08:54:04.361Z,89.12
2023-03-06T08:56:06.557Z,87.81
2023-03-06T08:58:08.565Z,88.74
2023-03-06T09:00:10.975Z,88.06
2023-03-06T09:02:13.170Z,87.50
2023-03-06T09:04:14.813Z,86.22
2023-03-06T09:06:17.012Z,84.36
2023-03-06T09:08:18.557Z,84.22
2023-03-06T09:10:22.499Z,84.21
2023-03-06T09:12:24.232Z,83.42
2023-03-06T09:14:25.898Z,83.63
2023-03-06T09:16:27.865Z,82.10
2023-03-06T09:18:29.507Z,81.64
2023-03-06T09:20:31.361Z,83.85
2023-03-06T09:22:33.461Z,83.93
2023-03-06T09:24:35.361Z,84.29
2023-03-06T09:26:45.525Z,84.26
2023-03-06T09:28:48.379Z,84.79
2023-03-06T09:30:50.325Z,83.44
2023-03-06T09:32:51.996Z,82.99
2023-03-06T09:34:53.667Z,82.98
2023-03-06T09:36:57.133Z,83.57
2023-03-06T09:38:59.322Z,83.89
2023-03-06T09:43:20.595Z,82.38
2023-03-06T09:45:22.724Z,83.31
2023-03-06T09:47:40.564Z,82.51
2023-03-06T09:49:52.134Z,81.34
2023-03-06T09:52:17.702Z,79.12
2023-03-06T09:54:26.575Z,80.60
2023-03-06T09:56:32.713Z,80.75
2023-03-06T09:58:40.804Z,82.49
2023-03-06T10:00:55.364Z,82.45
2023-03-06T10:03:12.697Z,82.98
2023-03-06T10:05:24.221Z,83.96
2023-03-06T10:07:42.855Z,83.79
2023-03-06T10:09:56.970Z,83.89
2023-03-06T10:12:04.770Z,83.40
2023-03-06T10:14:20.261Z,81.44
2023-03-06T10:16:30.658Z,81.91
2023-03-06T10:18:32.955Z,81.42
2023-03-06T10:20:43.997Z,80.88
2023-03-06T10:23:07.093Z,80.86
2023-03-06T10:25:43.672Z,80.59
2023-03-06T10:27:47.556Z,78.53
2023-03-06T10:30:19.734Z,76.77
2023-03-06T10:32:46.257Z,77.63
2023-03-06T10:34:50.405Z,77.24
2023-03-06T10:36:52.037Z,76.02
2023-03-06T10:38:56.226Z,77.54
2023-03-06T10:41:13.015Z,77.63
2023-03-06T10:43:14.692Z,79.29
2023-03-06T10:45:17.440Z,80.83
2023-03-06T10:47:29.992Z,85.31
2023-03-06T10:49:37.308Z,88.21
2023-03-06T10:51:39.005Z,88.59
2023-03-06T10:53:48.669Z,87.48
2023-03-06T10:55:58.839Z,86.72
2023-03-06T10:58:29.181Z,86.13
2023-03-06T11:00:37.921Z,85.78
2023-03-06T11:02:41.025Z,85.47
2023-03-06T11:04:51.013Z,85.79
2023-03-06T11:07:12.592Z,86.98
2023-03-06T11:09:25.669Z,85.35
2023-03-06T11:11:37.152Z,84.76
2023-03-06T11:13:45.150Z,82.82
2023-03-06T11:15:58.197Z,82.15
2023-03-06T11:18:07.521Z,82.57
2023-03-06T11:20:16.424Z,80.06
2023-03-06T11:22:18.953Z,78.35
2023-03-06T11:24:22.934Z,78.23
2023-03-06T11:26:34.449Z,72.70
2023-03-06T11:28:49.884Z,75.33
2023-03-06T11:31:02.409Z,77.70
2023-03-06T11:33:16.264Z,76.90
2023-03-06T11:35:51.766Z,76.56
2023-03-06T11:38:00.738Z,78.31
2023-03-06T11:40:11.076Z,80.42
2023-03-06T11:42:27.733Z,80.34
2023-03-06T11:45:25.892Z,79.69
2023-03-06T11:47:39.170Z,77.51
2023-03-06T11:49:45.751Z,78.69
2023-03-06T11:51:55.247Z,76.90
2023-03-06T11:54:00.293Z,76.10
2023-03-06T11:56:19.900Z,77.83
2023-03-06T11:58:49.558Z,78.86
2023-03-06T12:01:12.922Z,81.00
2023-03-06T12:03:31.576Z,80.50
2023-03-06T12:06:01.220Z,78.88
2023-03-06T12:08:16.774Z,80.68
2023-03-06T12:10:28.621Z,81.42
2023-03-06T12:13:01.220Z,82.55
2023-03-06T12:15:22.218Z,83.57
2023-03-06T12:17:42.852Z,81.63
2023-03-06T12:19:49.785Z,78.12
2023-03-06T12:22:09.632Z,77.97
2023-03-06T12:24:36.401Z,76.59
2023-03-06T12:26:50.519Z,75.79
2023-03-06T12:29:20.932Z,69.44
2023-03-06T12:31:51.207Z,67.91
2023-03-06T12:34:14.092Z,71.35
2023-03-06T12:36:40.749Z,71.86
2023-03-06T12:38:53.057Z,73.60
2023-03-06T12:41:11.322Z,75.84
2023-03-06T12:43:54.846Z,71.06
2023-03-06T12:46:03.473Z,72.10
2023-03-06T12:48:14.923Z,69.80
2023-03-06T12:50:23.917Z,68.41
2023-03-06T12:52:30.695Z,67.25
2023-03-06T12:54:37.395Z,66.00
2023-03-06T12:56:39.732Z,64.59
2023-03-06T12:58:51.992Z,64.69
2023-03-06T13:01:16.600Z,66.98
2023-03-06T13:03:54.392Z,66.74
2023-03-06T13:06:27.627Z,67.92
2023-03-06T13:08:54.182Z,70.41
2023-03-06T13:11:54.049Z,71.54
2023-03-06T13:13:56.500Z,74.88
2023-03-06T13:16:12.646Z,73.71
2023-03-06T13:18:23.242Z,76.74
2023-03-06T13:20:42.964Z,77.89
2023-03-06T13:22:47.186Z,76.84
2023-03-06T13:25:08.928Z,75.98
2023-03-06T13:27:12.373Z,76.09
2023-03-06T13:29:35.633Z,76.81
2023-03-06T13:31:37.449Z,75.75
2023-03-06T13:33:39.069Z,74.99
2023-03-06T13:35:40.625Z,74.94
2023-03-06T13:37:50.106Z,76.08
2023-03-06T13:39:58.407Z,75.03
2023-03-06T13:42:00.239Z,73.65
2023-03-06T13:44:24.911Z,74.15
2023-03-06T13:46:35.201Z,74.77
2023-03-06T13:48:44.678Z,74.25
2023-03-06T13:50:48.786Z,72.42
2023-03-06T13:53:09.034Z,72.48
2023-03-06T13:55:33.408Z,74.53
2023-03-06T13:57:45.014Z,78.30
2023-03-06T14:00:11.875Z,77.78
2023-03-06T14:02:39.674Z,77.69
2023-03-06T14:04:47.041Z,77.89
2023-03-06T14:07:06.632Z,75.72
2023-03-06T14:09:23.027Z,75.93
2023-03-06T14:11:25.238Z,77.85
2023-03-06T14:13:45.256Z,77.40
2023-03-06T14:15:54.145Z,76.31
2023-03-06T14:18:07.144Z,74.88
2023-03-06T14:20:17.849Z,73.78
2023-03-06T14:22:24.614Z,74.99
2023-03-06T14:24:54.025Z,73.82
2023-03-06T14:26:55.718Z,73.62
2023-03-06T14:29:02.568Z,73.34
2023-03-06T14:31:05.980Z,72.04
2023-03-06T14:33:11.471Z,70.66
2023-03-06T14:35:39.246Z,69.28
2023-03-06T14:37:40.899Z,69.13
2023-03-06T14:39:44.194Z,69.94
2023-03-06T14:41:45.829Z,69.78
2023-03-06T14:43:47.436Z,70.04
2023-03-06T14:46:03.590Z,69.52
2023-03-06T14:48:06.421Z,65.43
2023-03-06T14:50:24.583Z,68.52
2023-03-06T14:52:26.213Z,66.10
2023-03-06T14:54:34.006Z,61.70
2023-03-06T14:56:42.066Z,62.77
2023-03-06T14:58:59.175Z,62.62
2023-03-06T15:01:09.926Z,61.27
2023-03-06T15:03:17.920Z,62.58
2023-03-06T15:05:27.697Z,63.06
2023-03-06T15:07:31.649Z,61.53
2023-03-06T15:09:35.791Z,62.67
2023-03-06T15:11:57.835Z,62.43
2023-03-06T15:14:04.412Z,63.37
2023-03-06T15:16:06.174Z,61.76
2023-03-06T15:18:54.584Z,61.96
2023-03-06T15:21:20.852Z,62.26
2023-03-06T15:23:34.607Z,62.94
2023-03-06T15:25:36.313Z,61.80
2023-03-06T15:27:38.099Z,63.85
2023-03-06T15:29:39.813Z,64.44
2023-03-06T15:31:44.434Z,64.48
2023-03-06T15:34:09.065Z,63.85
2023-03-06T15:36:30.681Z,65.47
2023-03-06T15:38:32.800Z,66.22
2023-03-06T15:40:34.512Z,63.51
2023-03-06T15:42:36.595Z,64.09
2023-03-06T15:44:38.216Z,64.11
2023-03-06T15:46:39.997Z,64.35
2023-03-06T15:48:55.215Z,63.79
2023-03-06T15:50:57.113Z,63.99
2023-03-06T15:52:58.831Z,63.81
2023-03-06T15:55:00.322Z,64.08
2023-03-06T15:57:05.143Z,63.72
2023-03-06T15:59:10.670Z,64.91
2023-03-06T16:01:16.460Z,64.90
2023-03-06T16:03:18.245Z,65.13
2023-03-06T16:05:20.385Z,65.65
2023-03-06T16:07:21.911Z,66.44
2023-03-06T16:09:23.662Z,66.95
2023-03-06T16:11:41.817Z,67.37
2023-03-06T16:13:45.966Z,66.95
2023-03-06T16:15:49.064Z,66.85
2023-03-06T16:17:51.011Z,66.74
2023-03-06T16:19:52.892Z,65.74
2023-03-06T16:21:55.658Z,66.06
2023-03-06T16:23:57.105Z,67.91
2023-03-06T16:25:58.808Z,67.55
2023-03-06T16:28:00.904Z,66.80
2023-03-06T16:30:03.537Z,67.29
2023-03-06T16:32:05.686Z,67.89
2023-03-06T16:34:07.289Z,68.42
2023-03-06T16:36:13.795Z,68.31
2023-03-06T16:38:16.544Z,67.87
2023-03-06T16:40:24.118Z,68.56
2023-03-06T16:42:25.760Z,68.51
2023-03-06T16:44:27.287Z,69.03
2023-03-06T16:46:29.397Z,68.72
2023-03-06T16:48:38.362Z,69.01
2023-03-06T16:50:40.216Z,69.37
2023-03-06T16:52:41.787Z,68.94
2023-03-06T16:54:44.782Z,70.28
2023-03-06T16:56:46.547Z,70.42
2023-03-06T16:58:48.579Z,70.94
2023-03-06T17:00:50.211Z,71.13
2023-03-06T17:02:52.688Z,70.24
2023-03-06T17:04:55.472Z,70.90
2023-03-06T17:06:58.502Z,71.30
2023-03-06T17:09:00.193Z,73.07
2023-03-06T17:11:05.709Z,72.15
2023-03-06T17:13:08.518Z,72.46
2023-03-06T17:15:11.610Z,73.13
2023-03-06T17:17:13.142Z,72.28
2023-03-06T17:19:15.272Z,72.53
2023-03-06T17:21:16.937Z,72.98
2023-03-06T17:23:21.075Z,73.58
2023-03-06T17:25:23.158Z,73.96
2023-03-06T17:27:24.789Z,73.69
2023-03-06T17:29:26.281Z,73.99
2023-03-06T17:31:28.857Z,73.22
2023-03-06T17:33:30.655Z,73.59
2023-03-06T17:35:35.179Z,74.13
2023-03-06T17:37:36.936Z,75.15
2023-03-06T17:39:38.881Z,75.14
2023-03-06T17:41:40.573Z,75.36
2023-03-06T17:43:42.528Z,75.20
2023-03-06T17:45:47.287Z,75.40
2023-03-06T17:47:52.863Z,74.51
2023-03-06T17:49:54.537Z,74.09
2023-03-06T17:51:59.938Z,74.26
2023-03-06T17:54:01.616Z,74.38
2023-03-06T17:56:05.132Z,74.21
2023-03-06T17:58:07.160Z,76.00
2023-03-06T18:00:10.767Z,75.49
2023-03-06T18:02:17.633Z,75.99
2023-03-06T18:04:19.286Z,75.61
2023-03-06T18:06:22.109Z,74.26
2023-03-06T18:08:24.499Z,75.18
2023-03-06T18:10:25.995Z,76.15
2023-03-06T18:12:27.534Z,74.86
2023-03-06T18:14:29.080Z,75.13
2023-03-06T18:16:30.702Z,74.39
2023-03-06T18:18:33.213Z,75.37
2023-03-06T18:20:40.182Z,74.97
2023-03-06T18:22:41.743Z,75.54
2023-03-06T18:24:44.100Z,76.11
2023-03-06T18:26:45.861Z,75.36
2023-03-06T18:28:51.874Z,75.30
2023-03-06T18:30:53.362Z,75.51
2023-03-06T18:32:55.140Z,75.08
2023-03-06T18:34:57.014Z,76.76
2023-03-06T18:36:58.628Z,75.61
2023-03-06T18:39:03.590Z,75.63
2023-03-06T18:41:07.572Z,75.70
2023-03-06T18:43:09.096Z,76.20
2023-03-06T18:45:12.800Z,76.06
2023-03-06T18:47:15.545Z,76.65
2023-03-06T18:49:17.305Z,76.01
2023-03-06T18:51:20.101Z,76.58
2023-03-06T18:53:22.190Z,76.00
2023-03-06T18:55:23.808Z,76.80
2023-03-06T18:57:25.521Z,77.09
2023-03-06T18:59:27.224Z,76.52
2023-03-06T19:01:31.159Z,77.34
2023-03-06T19:03:32.958Z,77.39
2023-03-06T19:05:38.695Z,77.36
2023-03-06T19:07:40.278Z,78.37
2023-03-06T19:09:44.514Z,78.22
2023-03-06T19:11:46.876Z,77.41
2023-03-06T19:13:48.697Z,77.86
2023-03-06T19:15:50.300Z,78.07
2023-03-06T19:17:51.948Z,78.76
2023-03-06T19:19:54.992Z,79.05
2023-03-06T19:22:00.041Z,79.53
2023-03-06T19:24:02.646Z,79.34
2023-03-06T19:26:04.257Z,79.90
2023-03-06T19:28:06.025Z,80.79
2023-03-06T19:30:08.465Z,80.40
2023-03-06T19:32:10.128Z,79.89
2023-03-06T19:34:11.904Z,79.26
2023-03-06T19:36:14.853Z,78.64
2023-03-06T19:38:16.617Z,79.19
2023-03-06T19:40:18.379Z,78.89
2023-03-06T19:42:19.911Z,78.58
2023-03-06T19:44:23.023Z,78.41
2023-03-06T19:46:26.040Z,78.34
2023-03-06T19:48:27.744Z,78.63
2023-03-06T19:50:29.646Z,78.46
2023-03-06T19:52:31.255Z,77.54
2023-03-06T19:54:32.962Z,77.69
2023-03-06T19:56:34.558Z,78.11
2023-03-06T19:58:36.909Z,76.84
2023-03-06T20:00:38.500Z,77.87
2023-03-06T20:02:40.126Z,77.36
2023-03-06T20:04:41.983Z,76.90
2023-03-06T20:06:46.612Z,77.28
2023-03-06T20:08:48.947Z,77.59
2023-03-06T20:10:50.516Z,77.97
2023-03-06T20:12:52.507Z,77.89
2023-03-06T20:14:54.068Z,77.47
2023-03-06T20:16:55.644Z,77.72
2023-03-06T20:18:58.786Z,77.72
2023-03-06T20:21:02.111Z,78.41
2023-03-06T20:23:04.585Z,77.84
2023-03-06T20:25:06.479Z,78.54
2023-03-06T20:27:08.095Z,78.50
2023-03-06T20:29:10.293Z,79.00
2023-03-06T20:31:18.265Z,79.15
2023-03-06T20:33:22.059Z,79.80
2023-03-06T20:35:23.669Z,79.61
2023-03-06T20:37:25.163Z,79.69
2023-03-06T20:39:26.890Z,79.94
2023-03-06T20:41:30.105Z,79.64
2023-03-06T20:43:31.672Z,80.26
2023-03-06T20:45:33.743Z,80.07
2023-03-06T20:47:35.572Z,79.34
2023-03-06T20:49:37.983Z,79.43
2023-03-06T20:51:41.458Z,79.59
2023-03-06T20:53:43.401Z,79.01
2023-03-06T20:55:47.937Z,78.79
2023-03-06T20:57:51.932Z,79.06
2023-03-06T20:59:53.424Z,79.04
2023-03-06T21:01:55.100Z,79.49
2023-03-06T21:03:58.201Z,79.53
2023-03-06T21:06:00.118Z,78.57
2023-03-06T21:08:01.637Z,78.81
2023-03-06T21:10:03.482Z,78.81
2023-03-06T21:12:05.898Z,79.08
2023-03-06T21:14:07.603Z,80.33
2023-03-06T21:16:14.715Z,80.81
2023-03-06T21:18:16.434Z,80.95
2023-03-06T21:20:18.103Z,82.69
2023-03-06T21:22:19.731Z,82.68
2023-03-06T21:24:21.497Z,82.29
2023-03-06T21:26:25.780Z,82.21
2023-03-06T21:28:27.410Z,82.01
2023-03-06T21:30:29.794Z,80.74
2023-03-06T21:32:31.974Z,80.85
2023-03-06T21:34:33.701Z,81.16
2023-03-06T21:36:35.330Z,81.52
2023-03-06T21:38:37.680Z,81.83
2023-03-06T21:40:39.616Z,82.33
2023-03-06T21:42:41.442Z,82.27
2023-03-06T21:44:43.116Z,82.70
2023-03-06T21:46:45.640Z,82.63
2023-03-06T21:48:47.217Z,82.24
2023-03-06T21:50:48.876Z,81.89
2023-03-06T21:52:51.211Z,82.44
2023-03-06T21:54:52.848Z,83.17
2023-03-06T21:56:54.697Z,83.05
2023-03-06T21:58:57.942Z,83.33
2023-03-06T22:01:00.211Z,82.92
2023-03-06T22:03:04.706Z,83.91
2023-03-06T22:05:06.584Z,84.76
2023-03-06T22:07:08.276Z,85.19
2023-03-06T22:09:10.064Z,84.95
2023-03-06T22:11:14.794Z,84.34
2023-03-06T22:13:16.405Z,84.35
2023-03-06T22:15:18.077Z,84.63
2023-03-06T22:17:19.872Z,84.65
2023-03-06T22:19:21.404Z,84.55
2023-03-06T22:21:23.804Z,84.27
2023-03-06T22:23:25.712Z,84.31
2023-03-06T22:25:27.262Z,83.79
2023-03-06T22:27:29.723Z,84.56
2023-03-06T22:29:31.206Z,84.10
2023-03-06T22:31:32.939Z,83.76
2023-03-06T22:33:34.991Z,84.41
2023-03-06T22:35:36.726Z,84.46
2023-03-06T22:37:38.423Z,83.96
2023-03-06T22:39:40.145Z,83.47
2023-03-06T22:41:41.665Z,84.06
2023-03-06T22:43:43.994Z,84.13
2023-03-06T22:45:45.824Z,84.38
2023-03-06T22:47:47.394Z,84.76
2023-03-06T22:49:49.017Z,84.52
2023-03-06T22:51:50.592Z,84.09
2023-03-06T22:53:52.417Z,84.03
2023-03-06T22:55:57.829Z,83.76
2023-03-06T22:57:59.323Z,83.62
2023-03-06T23:00:01.065Z,84.03
2023-03-06T23:02:03.664Z,83.50
2023-03-06T23:04:10.845Z,83.43
2023-03-06T23:06:18.333Z,84.08
2023-03-06T23:08:19.881Z,84.32
2023-03-06T23:10:21.419Z,84.01
2023-03-06T23:12:41.636Z,84.26
2023-03-06T23:15:02.019Z,84.06
2023-03-06T23:17:22.316Z,83.24
2023-03-06T23:19:42.450Z,83.91
2023-03-06T23:22:02.543Z,83.44
2023-03-06T23:24:22.828Z,82.87
2023-03-06T23:26:26.335Z,83.37
2023-03-06T23:28:28.782Z,83.60
2023-03-06T23:30:30.353Z,83.49
2023-03-06T23:32:33.535Z,83.71
2023-03-06T23:34:35.340Z,83.72
2023-03-06T23:36:36.990Z,83.58
2023-03-06T23:38:39.238Z,83.34
2023-03-06T23:40:40.999Z,83.41
2023-03-06T23:42:42.495Z,83.69
2023-03-06T23:44:44.597Z,83.15
2023-03-06T23:46:46.354Z,83.63
2023-03-06T23:48:47.864Z,84.07
2023-03-06T23:50:49.839Z,82.84
2023-03-06T23:52:55.283Z,82.83
2023-03-06T23:54:56.761Z,83.46
2023-03-06T23:56:58.333Z,83.83
2023-03-06T23:59:00.036Z,83.49
